sensor_id;sensor_type;location;lat;lon;timestamp;temperature;humidity
42199;DHT22;27868;45.184;5.786;2023-02-15T00:01:52;6.40;78.90
42199;DHT22;27868;45.184;5.786;2023-02-15T00:04:37;6.40;79.10
42199;DHT22;27868;45.184;5.786;2023-02-15T00:07:31;6.40;79.10
42199;DHT22;27868;45.184;5.786;2023-02-15T00:10:15;6.40;79.20
42199;DHT22;27868;45.184;5.786;2023-02-15T00:13:01;6.40;79.30
42199;DHT22;27868;45.184;5.786;2023-02-15T00:15:46;6.40;79.40
42199;DHT22;27868;45.184;5.786;2023-02-15T00:18:30;6.40;79.50
42199;DHT22;27868;45.184;5.786;2023-02-15T00:21:16;6.30;79.50
42199;DHT22;27868;45.184;5.786;2023-02-15T00:24:02;6.30;79.70
42199;DHT22;27868;45.184;5.786;2023-02-15T00:26:48;6.30;79.70
42199;DHT22;27868;45.184;5.786;2023-02-15T00:29:34;6.20;79.70
42199;DHT22;27868;45.184;5.786;2023-02-15T00:32:18;6.20;79.60
42199;DHT22;27868;45.184;5.786;2023-02-15T00:35:03;6.20;79.70
42199;DHT22;27868;45.184;5.786;2023-02-15T00:37:48;6.10;79.60
42199;DHT22;27868;45.184;5.786;2023-02-15T00:40:33;6.10;79.70
42199;DHT22;27868;45.184;5.786;2023-02-15T00:43:18;6.10;79.70
42199;DHT22;27868;45.184;5.786;2023-02-15T00:46:04;6.10;79.80
42199;DHT22;27868;45.184;5.786;2023-02-15T00:48:49;6.10;79.80
42199;DHT22;27868;45.184;5.786;2023-02-15T00:51:34;6.10;79.80
42199;DHT22;27868;45.184;5.786;2023-02-15T00:54:18;6.00;79.90
42199;DHT22;27868;45.184;5.786;2023-02-15T00:57:03;6.00;79.90
42199;DHT22;27868;45.184;5.786;2023-02-15T00:59:48;6.00;79.90
42199;DHT22;27868;45.184;5.786;2023-02-15T01:02:32;6.00;79.90
42199;DHT22;27868;45.184;5.786;2023-02-15T01:05:17;6.00;79.90
42199;DHT22;27868;45.184;5.786;2023-02-15T01:08:02;6.00;80.10
42199;DHT22;27868;45.184;5.786;2023-02-15T01:10:47;6.00;79.90
42199;DHT22;27868;45.184;5.786;2023-02-15T01:13:33;5.90;79.70
42199;DHT22;27868;45.184;5.786;2023-02-15T01:16:18;5.90;79.70
42199;DHT22;27868;45.184;5.786;2023-02-15T01:19:03;5.90;79.70
42199;DHT22;27868;45.184;5.786;2023-02-15T01:21:49;5.90;79.70
42199;DHT22;27868;45.184;5.786;2023-02-15T01:24:33;5.80;79.70
42199;DHT22;27868;45.184;5.786;2023-02-15T01:27:18;5.80;79.70
42199;DHT22;27868;45.184;5.786;2023-02-15T01:30:03;5.80;79.70
42199;DHT22;27868;45.184;5.786;2023-02-15T01:32:49;5.80;79.70
42199;DHT22;27868;45.184;5.786;2023-02-15T01:35:33;5.70;79.70
42199;DHT22;27868;45.184;5.786;2023-02-15T01:38:18;5.70;80.40
42199;DHT22;27868;45.184;5.786;2023-02-15T01:41:03;5.70;79.80
42199;DHT22;27868;45.184;5.786;2023-02-15T01:47:49;5.70;79.80
42199;DHT22;27868;45.184;5.786;2023-02-15T01:50:39;5.60;79.80
42199;DHT22;27868;45.184;5.786;2023-02-15T01:53:34;5.60;80.00
42199;DHT22;27868;45.184;5.786;2023-02-15T01:56:24;5.50;79.90
42199;DHT22;27868;45.184;5.786;2023-02-15T01:59:16;5.50;79.90
42199;DHT22;27868;45.184;5.786;2023-02-15T02:02:01;5.50;80.00
42199;DHT22;27868;45.184;5.786;2023-02-15T02:04:49;5.60;80.30
42199;DHT22;27868;45.184;5.786;2023-02-15T02:07:38;5.40;80.30
42199;DHT22;27868;45.184;5.786;2023-02-15T02:10:24;5.50;80.30
42199;DHT22;27868;45.184;5.786;2023-02-15T02:13:09;5.50;80.40
42199;DHT22;27868;45.184;5.786;2023-02-15T02:35:00;5.30;80.30
42199;DHT22;27868;45.184;5.786;2023-02-15T02:41:10;5.20;80.20
42199;DHT22;27868;45.184;5.786;2023-02-15T02:44:18;5.20;80.30
42199;DHT22;27868;45.184;5.786;2023-02-15T02:47:20;5.20;80.30
42199;DHT22;27868;45.184;5.786;2023-02-15T02:50:12;5.20;80.50
42199;DHT22;27868;45.184;5.786;2023-02-15T02:52:58;5.10;80.60
42199;DHT22;27868;45.184;5.786;2023-02-15T02:58:39;5.10;80.70
42199;DHT22;27868;45.184;5.786;2023-02-15T03:01:34;5.10;80.70
42199;DHT22;27868;45.184;5.786;2023-02-15T03:04:22;5.10;80.80
42199;DHT22;27868;45.184;5.786;2023-02-15T03:07:12;5.10;80.90
42199;DHT22;27868;45.184;5.786;2023-02-15T03:10:00;5.10;81.30
42199;DHT22;27868;45.184;5.786;2023-02-15T03:12:46;5.00;81.70
42199;DHT22;27868;45.184;5.786;2023-02-15T03:15:34;5.10;81.80
42199;DHT22;27868;45.184;5.786;2023-02-15T03:19:12;5.10;81.80
42199;DHT22;27868;45.184;5.786;2023-02-15T03:22:00;5.00;81.70
42199;DHT22;27868;45.184;5.786;2023-02-15T03:24:57;5.00;82.10
42199;DHT22;27868;45.184;5.786;2023-02-15T03:27:49;5.00;81.60
42199;DHT22;27868;45.184;5.786;2023-02-15T03:30:38;5.00;82.20
42199;DHT22;27868;45.184;5.786;2023-02-15T03:33:23;4.90;81.40
42199;DHT22;27868;45.184;5.786;2023-02-15T03:36:23;5.00;81.40
42199;DHT22;27868;45.184;5.786;2023-02-15T03:42:31;4.90;81.20
42199;DHT22;27868;45.184;5.786;2023-02-15T03:45:24;4.90;81.10
42199;DHT22;27868;45.184;5.786;2023-02-15T03:48:09;4.80;81.20
42199;DHT22;27868;45.184;5.786;2023-02-15T03:51:04;4.90;81.20
42199;DHT22;27868;45.184;5.786;2023-02-15T03:54:37;4.80;81.30
42199;DHT22;27868;45.184;5.786;2023-02-15T03:57:29;4.80;81.30
42199;DHT22;27868;45.184;5.786;2023-02-15T04:00:35;4.80;81.30
42199;DHT22;27868;45.184;5.786;2023-02-15T04:03:45;4.70;81.20
42199;DHT22;27868;45.184;5.786;2023-02-15T04:06:34;4.70;81.20
42199;DHT22;27868;45.184;5.786;2023-02-15T04:09:18;4.70;81.30
42199;DHT22;27868;45.184;5.786;2023-02-15T04:12:22;4.70;81.50
42199;DHT22;27868;45.184;5.786;2023-02-15T04:15:08;4.60;81.80
42199;DHT22;27868;45.184;5.786;2023-02-15T04:18:14;4.60;82.10
42199;DHT22;27868;45.184;5.786;2023-02-15T04:20:59;4.60;82.10
42199;DHT22;27868;45.184;5.786;2023-02-15T04:24:02;4.70;82.20
42199;DHT22;27868;45.184;5.786;2023-02-15T04:27:06;4.60;82.10
42199;DHT22;27868;45.184;5.786;2023-02-15T04:29:51;4.60;82.20
42199;DHT22;27868;45.184;5.786;2023-02-15T04:32:36;4.60;82.30
42199;DHT22;27868;45.184;5.786;2023-02-15T04:35:20;4.60;82.40
42199;DHT22;27868;45.184;5.786;2023-02-15T04:38:05;4.60;82.60
42199;DHT22;27868;45.184;5.786;2023-02-15T04:40:51;4.60;82.50
42199;DHT22;27868;45.184;5.786;2023-02-15T04:43:39;4.60;82.50
42199;DHT22;27868;45.184;5.786;2023-02-15T04:46:23;4.60;82.50
42199;DHT22;27868;45.184;5.786;2023-02-15T04:49:08;4.50;82.40
42199;DHT22;27868;45.184;5.786;2023-02-15T04:51:53;4.60;82.40
42199;DHT22;27868;45.184;5.786;2023-02-15T04:54:37;4.50;82.50
42199;DHT22;27868;45.184;5.786;2023-02-15T04:57:22;4.50;82.40
42199;DHT22;27868;45.184;5.786;2023-02-15T05:00:07;4.50;82.30
42199;DHT22;27868;45.184;5.786;2023-02-15T05:02:53;4.50;82.20
42199;DHT22;27868;45.184;5.786;2023-02-15T05:05:39;4.50;82.20
42199;DHT22;27868;45.184;5.786;2023-02-15T05:08:24;4.50;82.30
42199;DHT22;27868;45.184;5.786;2023-02-15T05:11:09;4.40;82.40
42199;DHT22;27868;45.184;5.786;2023-02-15T05:13:54;4.50;82.60
42199;DHT22;27868;45.184;5.786;2023-02-15T05:16:38;4.50;82.70
42199;DHT22;27868;45.184;5.786;2023-02-15T05:19:23;4.50;82.60
42199;DHT22;27868;45.184;5.786;2023-02-15T05:22:09;4.50;82.70
42199;DHT22;27868;45.184;5.786;2023-02-15T05:24:53;4.40;82.70
42199;DHT22;27868;45.184;5.786;2023-02-15T05:27:57;4.40;82.70
42199;DHT22;27868;45.184;5.786;2023-02-15T05:31:07;4.40;82.80
42199;DHT22;27868;45.184;5.786;2023-02-15T05:33:52;4.40;83.00
42199;DHT22;27868;45.184;5.786;2023-02-15T05:36:37;4.40;83.10
42199;DHT22;27868;45.184;5.786;2023-02-15T05:39:22;4.40;83.10
42199;DHT22;27868;45.184;5.786;2023-02-15T05:42:06;4.40;83.10
42199;DHT22;27868;45.184;5.786;2023-02-15T05:44:51;4.40;83.10
42199;DHT22;27868;45.184;5.786;2023-02-15T05:47:35;4.40;83.20
42199;DHT22;27868;45.184;5.786;2023-02-15T05:50:20;4.40;83.20
42199;DHT22;27868;45.184;5.786;2023-02-15T05:53:05;4.40;83.30
42199;DHT22;27868;45.184;5.786;2023-02-15T05:55:49;4.40;83.30
42199;DHT22;27868;45.184;5.786;2023-02-15T05:58:39;4.40;83.40
42199;DHT22;27868;45.184;5.786;2023-02-15T06:01:23;4.40;83.40
42199;DHT22;27868;45.184;5.786;2023-02-15T06:04:08;4.40;83.50
42199;DHT22;27868;45.184;5.786;2023-02-15T06:06:54;4.30;83.40
42199;DHT22;27868;45.184;5.786;2023-02-15T06:09:38;4.30;83.50
42199;DHT22;27868;45.184;5.786;2023-02-15T06:12:23;4.30;83.50
42199;DHT22;27868;45.184;5.786;2023-02-15T06:15:08;4.30;83.60
42199;DHT22;27868;45.184;5.786;2023-02-15T06:17:53;4.30;83.70
42199;DHT22;27868;45.184;5.786;2023-02-15T06:20:37;4.30;83.70
42199;DHT22;27868;45.184;5.786;2023-02-15T06:23:22;4.30;83.70
42199;DHT22;27868;45.184;5.786;2023-02-15T06:26:06;4.30;83.50
42199;DHT22;27868;45.184;5.786;2023-02-15T06:28:51;4.30;83.60
42199;DHT22;27868;45.184;5.786;2023-02-15T06:31:35;4.30;83.50
42199;DHT22;27868;45.184;5.786;2023-02-15T06:34:20;4.30;83.40
42199;DHT22;27868;45.184;5.786;2023-02-15T06:37:05;4.30;83.30
42199;DHT22;27868;45.184;5.786;2023-02-15T06:39:49;4.30;83.30
42199;DHT22;27868;45.184;5.786;2023-02-15T06:42:33;4.20;83.40
42199;DHT22;27868;45.184;5.786;2023-02-15T06:45:18;4.20;83.50
42199;DHT22;27868;45.184;5.786;2023-02-15T06:48:03;4.20;83.50
42199;DHT22;27868;45.184;5.786;2023-02-15T06:50:48;4.20;83.60
42199;DHT22;27868;45.184;5.786;2023-02-15T06:53:33;4.20;83.70
42199;DHT22;27868;45.184;5.786;2023-02-15T06:56:19;4.30;83.70
42199;DHT22;27868;45.184;5.786;2023-02-15T06:59:04;4.20;83.80
42199;DHT22;27868;45.184;5.786;2023-02-15T07:01:48;4.20;83.70
42199;DHT22;27868;45.184;5.786;2023-02-15T07:04:36;4.20;83.80
42199;DHT22;27868;45.184;5.786;2023-02-15T07:07:20;4.20;83.80
42199;DHT22;27868;45.184;5.786;2023-02-15T07:10:05;4.10;83.60
42199;DHT22;27868;45.184;5.786;2023-02-15T07:12:50;4.10;83.50
42199;DHT22;27868;45.184;5.786;2023-02-15T07:15:36;4.10;83.60
42199;DHT22;27868;45.184;5.786;2023-02-15T07:18:20;4.20;83.80
42199;DHT22;27868;45.184;5.786;2023-02-15T07:21:05;4.10;83.80
42199;DHT22;27868;45.184;5.786;2023-02-15T07:23:55;4.20;84.00
42199;DHT22;27868;45.184;5.786;2023-02-15T07:26:40;4.10;84.00
42199;DHT22;27868;45.184;5.786;2023-02-15T07:29:24;4.10;84.00
42199;DHT22;27868;45.184;5.786;2023-02-15T07:32:09;4.10;84.00
42199;DHT22;27868;45.184;5.786;2023-02-15T07:34:53;4.10;84.00
42199;DHT22;27868;45.184;5.786;2023-02-15T07:37:38;4.10;84.10
42199;DHT22;27868;45.184;5.786;2023-02-15T07:40:23;4.10;84.20
42199;DHT22;27868;45.184;5.786;2023-02-15T07:43:07;4.10;84.30
42199;DHT22;27868;45.184;5.786;2023-02-15T07:45:52;4.10;84.50
42199;DHT22;27868;45.184;5.786;2023-02-15T07:48:39;4.10;84.60
42199;DHT22;27868;45.184;5.786;2023-02-15T07:51:24;4.10;84.50
42199;DHT22;27868;45.184;5.786;2023-02-15T07:54:08;4.10;84.40
42199;DHT22;27868;45.184;5.786;2023-02-15T07:56:53;4.10;84.50
42199;DHT22;27868;45.184;5.786;2023-02-15T07:59:37;4.10;84.60
42199;DHT22;27868;45.184;5.786;2023-02-15T08:02:22;4.10;84.60
42199;DHT22;27868;45.184;5.786;2023-02-15T08:05:07;4.10;84.60
42199;DHT22;27868;45.184;5.786;2023-02-15T08:07:51;4.20;84.60
42199;DHT22;27868;45.184;5.786;2023-02-15T08:10:36;4.10;84.70
42199;DHT22;27868;45.184;5.786;2023-02-15T08:13:39;4.10;84.90
42199;DHT22;27868;45.184;5.786;2023-02-15T08:16:52;4.20;85.10
42199;DHT22;27868;45.184;5.786;2023-02-15T08:19:36;4.20;85.40
42199;DHT22;27868;45.184;5.786;2023-02-15T08:22:21;4.10;85.50
42199;DHT22;27868;45.184;5.786;2023-02-15T08:25:06;4.20;85.80
42199;DHT22;27868;45.184;5.786;2023-02-15T08:27:51;4.20;85.90
42199;DHT22;27868;45.184;5.786;2023-02-15T08:30:35;4.20;86.10
42199;DHT22;27868;45.184;5.786;2023-02-15T08:33:20;4.20;86.10
42199;DHT22;27868;45.184;5.786;2023-02-15T08:36:07;4.30;86.30
42199;DHT22;27868;45.184;5.786;2023-02-15T08:38:52;4.30;86.40
42199;DHT22;27868;45.184;5.786;2023-02-15T08:41:38;4.30;86.70
42199;DHT22;27868;45.184;5.786;2023-02-15T08:44:23;4.30;87.00
42199;DHT22;27868;45.184;5.786;2023-02-15T08:47:08;4.30;87.40
42199;DHT22;27868;45.184;5.786;2023-02-15T08:49:52;4.40;88.20
42199;DHT22;27868;45.184;5.786;2023-02-15T08:52:37;4.30;88.80
42199;DHT22;27868;45.184;5.786;2023-02-15T08:55:22;4.30;88.50
42199;DHT22;27868;45.184;5.786;2023-02-15T08:58:06;4.40;88.40
42199;DHT22;27868;45.184;5.786;2023-02-15T09:00:51;4.50;88.80
42199;DHT22;27868;45.184;5.786;2023-02-15T09:03:36;4.50;88.50
42199;DHT22;27868;45.184;5.786;2023-02-15T09:06:22;4.60;88.50
42199;DHT22;27868;45.184;5.786;2023-02-15T09:09:07;4.60;88.50
42199;DHT22;27868;45.184;5.786;2023-02-15T09:11:52;4.70;88.50
42199;DHT22;27868;45.184;5.786;2023-02-15T09:14:36;4.80;88.40
42199;DHT22;27868;45.184;5.786;2023-02-15T09:17:21;4.90;88.50
42199;DHT22;27868;45.184;5.786;2023-02-15T09:20:05;4.90;88.50
42199;DHT22;27868;45.184;5.786;2023-02-15T09:22:51;4.90;88.50
42199;DHT22;27868;45.184;5.786;2023-02-15T09:25:37;5.00;88.40
42199;DHT22;27868;45.184;5.786;2023-02-15T09:28:21;5.00;89.60
42199;DHT22;27868;45.184;5.786;2023-02-15T09:33:52;5.10;88.80
42199;DHT22;27868;45.184;5.786;2023-02-15T09:36:38;5.10;88.60
42199;DHT22;27868;45.184;5.786;2023-02-15T09:39:24;5.20;88.60
42199;DHT22;27868;45.184;5.786;2023-02-15T09:45:32;5.30;88.80
42199;DHT22;27868;45.184;5.786;2023-02-15T09:48:30;5.40;88.80
42199;DHT22;27868;45.184;5.786;2023-02-15T09:52:50;5.50;88.90
42199;DHT22;27868;45.184;5.786;2023-02-15T10:05:01;5.70;88.40
42199;DHT22;27868;45.184;5.786;2023-02-15T10:14:47;5.90;87.10
42199;DHT22;27868;45.184;5.786;2023-02-15T10:21:12;6.00;87.20
42199;DHT22;27868;45.184;5.786;2023-02-15T10:27:01;6.10;86.90
42199;DHT22;27868;45.184;5.786;2023-02-15T10:30:08;6.20;87.20
42199;DHT22;27868;45.184;5.786;2023-02-15T10:33:00;6.30;87.10
42199;DHT22;27868;45.184;5.786;2023-02-15T10:35:55;6.30;86.90
42199;DHT22;27868;45.184;5.786;2023-02-15T10:39:08;6.40;86.70
42199;DHT22;27868;45.184;5.786;2023-02-15T10:44:58;6.50;86.70
42199;DHT22;27868;45.184;5.786;2023-02-15T10:50:39;6.70;86.40
42199;DHT22;27868;45.184;5.786;2023-02-15T10:56:36;6.80;86.30
42199;DHT22;27868;45.184;5.786;2023-02-15T10:59:45;6.90;85.80
42199;DHT22;27868;45.184;5.786;2023-02-15T11:08:17;7.00;85.50
42199;DHT22;27868;45.184;5.786;2023-02-15T11:11:09;7.00;85.30
42199;DHT22;27868;45.184;5.786;2023-02-15T11:14:00;7.10;85.20
42199;DHT22;27868;45.184;5.786;2023-02-15T11:16:51;7.20;84.60
42199;DHT22;27868;45.184;5.786;2023-02-15T11:20:04;7.30;84.90
42199;DHT22;27868;45.184;5.786;2023-02-15T11:22:52;7.40;84.40
42199;DHT22;27868;45.184;5.786;2023-02-15T11:25:37;7.40;84.10
42199;DHT22;27868;45.184;5.786;2023-02-15T11:28:30;7.50;83.10
42199;DHT22;27868;45.184;5.786;2023-02-15T11:31:21;7.60;83.70
42199;DHT22;27868;45.184;5.786;2023-02-15T11:37:08;7.60;82.40
42199;DHT22;27868;45.184;5.786;2023-02-15T11:39:54;7.70;82.70
42199;DHT22;27868;45.184;5.786;2023-02-15T11:42:39;7.70;82.70
42199;DHT22;27868;45.184;5.786;2023-02-15T11:45:30;7.80;82.40
42199;DHT22;27868;45.184;5.786;2023-02-15T11:48:15;7.90;81.80
42199;DHT22;27868;45.184;5.786;2023-02-15T11:51:02;8.00;81.20
42199;DHT22;27868;45.184;5.786;2023-02-15T11:53:48;8.00;81.40
42199;DHT22;27868;45.184;5.786;2023-02-15T11:56:34;8.10;81.10
42199;DHT22;27868;45.184;5.786;2023-02-15T11:59:29;8.20;81.30
42199;DHT22;27868;45.184;5.786;2023-02-15T12:02:22;8.20;80.90
42199;DHT22;27868;45.184;5.786;2023-02-15T12:05:11;8.50;77.60
42199;DHT22;27868;45.184;5.786;2023-02-15T12:08:15;8.50;79.40
42199;DHT22;27868;45.184;5.786;2023-02-15T12:11:12;8.50;79.40
42199;DHT22;27868;45.184;5.786;2023-02-15T12:14:05;8.60;79.30
42199;DHT22;27868;45.184;5.786;2023-02-15T12:16:53;8.60;79.70
42199;DHT22;27868;45.184;5.786;2023-02-15T12:19:40;8.70;79.90
42199;DHT22;27868;45.184;5.786;2023-02-15T12:22:28;8.80;79.60
42199;DHT22;27868;45.184;5.786;2023-02-15T12:25:26;8.90;79.60
42199;DHT22;27868;45.184;5.786;2023-02-15T12:28:38;9.00;79.30
42199;DHT22;27868;45.184;5.786;2023-02-15T12:31:36;9.10;78.30
42199;DHT22;27868;45.184;5.786;2023-02-15T12:34:30;9.20;78.90
42199;DHT22;27868;45.184;5.786;2023-02-15T12:37:17;9.20;78.80
42199;DHT22;27868;45.184;5.786;2023-02-15T12:40:29;9.30;78.50
42199;DHT22;27868;45.184;5.786;2023-02-15T12:43:35;9.30;77.70
42199;DHT22;27868;45.184;5.786;2023-02-15T12:46:23;9.40;78.20
42199;DHT22;27868;45.184;5.786;2023-02-15T12:49:19;9.50;78.40
42199;DHT22;27868;45.184;5.786;2023-02-15T12:52:13;9.60;77.20
42199;DHT22;27868;45.184;5.786;2023-02-15T12:55:32;9.70;77.90
42199;DHT22;27868;45.184;5.786;2023-02-15T12:58:17;9.80;77.50
42199;DHT22;27868;45.184;5.786;2023-02-15T13:04:04;10.00;76.80
42199;DHT22;27868;45.184;5.786;2023-02-15T13:06:51;10.10;76.40
42199;DHT22;27868;45.184;5.786;2023-02-15T13:09:38;10.20;76.50
42199;DHT22;27868;45.184;5.786;2023-02-15T13:12:26;10.30;76.90
42199;DHT22;27868;45.184;5.786;2023-02-15T13:15:29;10.40;76.20
42199;DHT22;27868;45.184;5.786;2023-02-15T13:18:50;10.50;76.50
42199;DHT22;27868;45.184;5.786;2023-02-15T13:21:38;10.60;76.60
42199;DHT22;27868;45.184;5.786;2023-02-15T13:24:32;10.70;76.70
42199;DHT22;27868;45.184;5.786;2023-02-15T13:27:23;10.90;77.30
42199;DHT22;27868;45.184;5.786;2023-02-15T13:30:35;11.00;76.40
42199;DHT22;27868;45.184;5.786;2023-02-15T13:33:34;11.10;75.20
42199;DHT22;27868;45.184;5.786;2023-02-15T13:36:30;11.20;75.40
42199;DHT22;27868;45.184;5.786;2023-02-15T13:39:28;11.30;75.10
42199;DHT22;27868;45.184;5.786;2023-02-15T13:42:37;11.30;75.10
42199;DHT22;27868;45.184;5.786;2023-02-15T13:46:00;11.30;74.70
42199;DHT22;27868;45.184;5.786;2023-02-15T13:52:20;11.40;74.10
42199;DHT22;27868;45.184;5.786;2023-02-15T13:55:27;11.40;74.20
42199;DHT22;27868;45.184;5.786;2023-02-15T14:01:45;11.40;73.60
42199;DHT22;27868;45.184;5.786;2023-02-15T14:25:40;11.60;71.60
42199;DHT22;27868;45.184;5.786;2023-02-15T14:31:45;11.60;72.50
42199;DHT22;27868;45.184;5.786;2023-02-15T14:34:48;11.60;72.20
42199;DHT22;27868;45.184;5.786;2023-02-15T14:40:51;11.60;71.40
42199;DHT22;27868;45.184;5.786;2023-02-15T14:47:05;11.70;71.10
42199;DHT22;27868;45.184;5.786;2023-02-15T14:49:52;11.70;72.00
42199;DHT22;27868;45.184;5.786;2023-02-15T14:53:16;11.70;71.60
42199;DHT22;27868;45.184;5.786;2023-02-15T14:59:00;11.70;71.70
42199;DHT22;27868;45.184;5.786;2023-02-15T15:10:40;11.80;71.10
42199;DHT22;27868;45.184;5.786;2023-02-15T15:16:29;11.90;70.50
42199;DHT22;27868;45.184;5.786;2023-02-15T15:22:30;12.00;70.70
42199;DHT22;27868;45.184;5.786;2023-02-15T15:31:51;12.10;69.60
42199;DHT22;27868;45.184;5.786;2023-02-15T15:47:42;12.10;69.60
42199;DHT22;27868;45.184;5.786;2023-02-15T15:50:31;12.10;69.10
42199;DHT22;27868;45.184;5.786;2023-02-15T15:53:27;12.10;69.20
42199;DHT22;27868;45.184;5.786;2023-02-15T15:56:16;12.20;68.70
42199;DHT22;27868;45.184;5.786;2023-02-15T15:59:05;12.20;68.60
42199;DHT22;27868;45.184;5.786;2023-02-15T16:01:50;12.30;68.90
42199;DHT22;27868;45.184;5.786;2023-02-15T16:04:35;12.30;68.70
42199;DHT22;27868;45.184;5.786;2023-02-15T16:07:22;12.30;68.50
42199;DHT22;27868;45.184;5.786;2023-02-15T16:10:23;12.30;68.40
42199;DHT22;27868;45.184;5.786;2023-02-15T16:13:12;12.30;68.70
42199;DHT22;27868;45.184;5.786;2023-02-15T16:15:58;12.30;69.20
42199;DHT22;27868;45.184;5.786;2023-02-15T16:18:43;12.30;69.60
42199;DHT22;27868;45.184;5.786;2023-02-15T16:21:34;12.30;70.10
42199;DHT22;27868;45.184;5.786;2023-02-15T16:24:24;12.30;70.60
42199;DHT22;27868;45.184;5.786;2023-02-15T16:30:25;12.30;71.20
42199;DHT22;27868;45.184;5.786;2023-02-15T16:33:15;12.30;71.60
42199;DHT22;27868;45.184;5.786;2023-02-15T16:36:01;12.20;71.50
42199;DHT22;27868;45.184;5.786;2023-02-15T16:41:34;12.20;71.50
42199;DHT22;27868;45.184;5.786;2023-02-15T16:44:20;12.20;71.40
42199;DHT22;27868;45.184;5.786;2023-02-15T16:47:22;12.20;71.30
42199;DHT22;27868;45.184;5.786;2023-02-15T16:50:18;12.10;71.20
42199;DHT22;27868;45.184;5.786;2023-02-15T16:53:06;12.10;71.30
42199;DHT22;27868;45.184;5.786;2023-02-15T16:55:59;12.10;71.30
42199;DHT22;27868;45.184;5.786;2023-02-15T16:58:50;12.00;71.20
42199;DHT22;27868;45.184;5.786;2023-02-15T17:01:35;12.00;71.20
42199;DHT22;27868;45.184;5.786;2023-02-15T17:10:00;11.90;71.20
42199;DHT22;27868;45.184;5.786;2023-02-15T17:12:53;11.90;71.10
42199;DHT22;27868;45.184;5.786;2023-02-15T17:18:45;11.90;71.20
42199;DHT22;27868;45.184;5.786;2023-02-15T17:21:33;11.80;71.30
42199;DHT22;27868;45.184;5.786;2023-02-15T17:27:26;11.80;71.40
42199;DHT22;27868;45.184;5.786;2023-02-15T17:30:21;11.70;71.30
42199;DHT22;27868;45.184;5.786;2023-02-15T17:39:12;11.60;71.50
42199;DHT22;27868;45.184;5.786;2023-02-15T17:42:03;11.60;71.50
42199;DHT22;27868;45.184;5.786;2023-02-15T17:44:48;11.50;71.40
42199;DHT22;27868;45.184;5.786;2023-02-15T17:47:33;11.50;71.40
42199;DHT22;27868;45.184;5.786;2023-02-15T17:50:23;11.50;71.30
42199;DHT22;27868;45.184;5.786;2023-02-15T17:53:07;11.50;71.20
42199;DHT22;27868;45.184;5.786;2023-02-15T17:55:53;11.50;72.10
42199;DHT22;27868;45.184;5.786;2023-02-15T17:58:38;11.40;71.30
42199;DHT22;27868;45.184;5.786;2023-02-15T18:01:23;11.40;71.30
42199;DHT22;27868;45.184;5.786;2023-02-15T18:04:26;11.50;71.40
42199;DHT22;27868;45.184;5.786;2023-02-15T18:07:30;11.40;71.30
42199;DHT22;27868;45.184;5.786;2023-02-15T18:10:33;11.40;71.20
42199;DHT22;27868;45.184;5.786;2023-02-15T18:13:37;11.40;71.40
42199;DHT22;27868;45.184;5.786;2023-02-15T18:16:24;11.30;71.30
42199;DHT22;27868;45.184;5.786;2023-02-15T18:19:16;11.30;71.20
42199;DHT22;27868;45.184;5.786;2023-02-15T18:22:01;11.30;71.10
42199;DHT22;27868;45.184;5.786;2023-02-15T18:24:47;11.30;71.10
42199;DHT22;27868;45.184;5.786;2023-02-15T18:27:32;11.30;71.20
42199;DHT22;27868;45.184;5.786;2023-02-15T18:30:20;11.30;71.20
42199;DHT22;27868;45.184;5.786;2023-02-15T18:33:05;11.30;71.20
42199;DHT22;27868;45.184;5.786;2023-02-15T18:35:49;11.30;71.20
42199;DHT22;27868;45.184;5.786;2023-02-15T18:38:34;11.30;71.30
42199;DHT22;27868;45.184;5.786;2023-02-15T18:41:21;11.20;71.20
42199;DHT22;27868;45.184;5.786;2023-02-15T18:44:12;11.30;71.30
42199;DHT22;27868;45.184;5.786;2023-02-15T18:46:56;11.20;71.20
42199;DHT22;27868;45.184;5.786;2023-02-15T18:49:41;11.20;71.20
42199;DHT22;27868;45.184;5.786;2023-02-15T18:52:29;11.20;71.10
42199;DHT22;27868;45.184;5.786;2023-02-15T18:58:05;11.10;71.10
42199;DHT22;27868;45.184;5.786;2023-02-15T19:00:50;11.10;71.30
42199;DHT22;27868;45.184;5.786;2023-02-15T19:03:36;11.10;71.40
42199;DHT22;27868;45.184;5.786;2023-02-15T19:06:21;11.00;71.40
42199;DHT22;27868;45.184;5.786;2023-02-15T19:09:22;11.00;71.50
42199;DHT22;27868;45.184;5.786;2023-02-15T19:12:11;11.00;71.60
42199;DHT22;27868;45.184;5.786;2023-02-15T19:14:56;11.00;71.90
42199;DHT22;27868;45.184;5.786;2023-02-15T19:17:41;10.90;71.90
42199;DHT22;27868;45.184;5.786;2023-02-15T19:20:34;10.90;72.00
42199;DHT22;27868;45.184;5.786;2023-02-15T19:23:21;10.90;72.00
42199;DHT22;27868;45.184;5.786;2023-02-15T19:26:07;10.90;72.00
42199;DHT22;27868;45.184;5.786;2023-02-15T19:28:53;10.80;72.00
42199;DHT22;27868;45.184;5.786;2023-02-15T19:31:38;10.80;72.20
42199;DHT22;27868;45.184;5.786;2023-02-15T19:34:23;10.80;72.40
42199;DHT22;27868;45.184;5.786;2023-02-15T19:37:23;10.70;72.40
42199;DHT22;27868;45.184;5.786;2023-02-15T19:40:21;10.70;72.70
42199;DHT22;27868;45.184;5.786;2023-02-15T19:43:16;10.60;72.90
42199;DHT22;27868;45.184;5.786;2023-02-15T19:46:01;10.60;72.90
42199;DHT22;27868;45.184;5.786;2023-02-15T19:48:47;10.50;72.90
42199;DHT22;27868;45.184;5.786;2023-02-15T19:51:32;10.50;73.00
42199;DHT22;27868;45.184;5.786;2023-02-15T19:54:35;10.40;73.10
42199;DHT22;27868;45.184;5.786;2023-02-15T19:57:20;10.40;73.30
42199;DHT22;27868;45.184;5.786;2023-02-15T20:00:17;10.30;73.30
42199;DHT22;27868;45.184;5.786;2023-02-15T20:03:04;10.30;73.50
42199;DHT22;27868;45.184;5.786;2023-02-15T20:05:49;10.20;73.60
42199;DHT22;27868;45.184;5.786;2023-02-15T20:08:33;10.20;73.80
42199;DHT22;27868;45.184;5.786;2023-02-15T20:11:18;10.20;74.00
42199;DHT22;27868;45.184;5.786;2023-02-15T20:14:08;10.10;73.90
42199;DHT22;27868;45.184;5.786;2023-02-15T20:16:54;10.10;73.80
42199;DHT22;27868;45.184;5.786;2023-02-15T20:19:38;10.10;74.00
42199;DHT22;27868;45.184;5.786;2023-02-15T20:22:26;10.00;74.20
42199;DHT22;27868;45.184;5.786;2023-02-15T20:25:18;10.00;74.30
42199;DHT22;27868;45.184;5.786;2023-02-15T20:28:04;10.00;74.40
42199;DHT22;27868;45.184;5.786;2023-02-15T20:30:49;9.90;74.50
42199;DHT22;27868;45.184;5.786;2023-02-15T20:33:34;9.90;74.50
42199;DHT22;27868;45.184;5.786;2023-02-15T20:36:20;9.90;74.70
42199;DHT22;27868;45.184;5.786;2023-02-15T20:39:14;9.90;74.90
42199;DHT22;27868;45.184;5.786;2023-02-15T20:41:59;9.90;75.10
42199;DHT22;27868;45.184;5.786;2023-02-15T20:44:44;9.70;75.00
42199;DHT22;27868;45.184;5.786;2023-02-15T20:47:29;9.70;75.00
42199;DHT22;27868;45.184;5.786;2023-02-15T20:50:25;9.70;75.20
42199;DHT22;27868;45.184;5.786;2023-02-15T20:53:11;9.70;75.20
42199;DHT22;27868;45.184;5.786;2023-02-15T20:55:56;9.60;75.30
42199;DHT22;27868;45.184;5.786;2023-02-15T20:58:41;9.60;75.40
42199;DHT22;27868;45.184;5.786;2023-02-15T21:01:26;9.60;75.50
42199;DHT22;27868;45.184;5.786;2023-02-15T21:04:19;9.50;75.60
42199;DHT22;27868;45.184;5.786;2023-02-15T21:07:05;9.50;75.70
42199;DHT22;27868;45.184;5.786;2023-02-15T21:09:49;9.50;75.80